Meteo Giornale » Osservazioni meteo Spagna » Albacete-Los Llanos
ore: 16:30 - Osservazioni Meteo Albacete-Los Llanos
Lat. 38° 57' N Lon. 1° 51' W Alt. 702 metri s.l.m.
29 °C
Sereno
Temp. 24 Ore
20 °C
34 °C
Sud-Est
18.5 Km/h
Dew point 17 °C
Umidità 48 %
Visibilità 10 Km
Il sole sorge alle ore 07:36
Il sole tramonta alle ore 20:38
| Data e Ora | Cielo e Fenomeni | T °C | DP °C | Um. % | Pres. hPa | Vis. km | Vento km/h | |
|---|---|---|---|---|---|---|---|---|
| Oggi h: 16:30 | Sereno | 29 | 17 | 48 | 1021 | 10 | SE 18.5 | |
| Oggi h: 16:00 | Sereno | 29 | 17 | 48 | 1021 | 10 | S/SE 14.8 | |
| Oggi h: 15:30 | Sereno | 28 | 17 | 51 | 1021 | 10 | S/SE 16.7 | |
| Oggi h: 15:00 | Sereno | 27 | 17 | 54 | 1022 | 10 | S/SE 16.7 | |
| Oggi h: 14:30 | Sereno | 27 | 17 | 54 | 1021 | 10 | E/SE 20.3 | |
| Oggi h: 14:00 | Sereno | 24 | 17 | 64 | 1023 | 10 | S 16.7 | |
| Oggi h: 13:30 | Sereno | 25 | 17 | 61 | 1023 | 10 | S/SE 16.7 | |
| Oggi h: 13:00 | Sereno | 25 | 17 | 61 | 1022 | 10 | S/SE 14.8 | |
| Oggi h: 12:30 | Sereno | 25 | 18 | 65 | 1023 | 10 | S/SE 13 | |
| Oggi h: 12:00 | Sereno | 24 | 17 | 64 | 1023 | 10 | S/SE 16.7 | |
| Oggi h: 11:30 | Sereno | 24 | 17 | 64 | 1023 | 10 | S/SE 18.5 | |
| Oggi h: 11:00 | Sereno | 24 | 17 | 64 | 1023 | 10 | S/SE 16.7 | |
| Oggi h: 10:30 | Sereno | 22 | 17 | 73 | 1022 | 10 | SE 16.7 | |
| Oggi h: 10:00 | Sereno | 22 | 17 | 73 | 1022 | 10 | S/SE 14.8 | |
| Oggi h: 09:30 | Sereno | 22 | 17 | 73 | 1022 | 10 | SE 14.8 | |
| Oggi h: 09:00 | Sereno | 21 | 17 | 77 | 1022 | 10 | SE 9.3 | |
| Oggi h: 08:30 | Sereno | 20 | 17 | 82 | 1022 | 10 | E 13 | |
| Oggi h: 08:00 | Sereno | 20 | 17 | 82 | 1021 | 10 | E/SE 11.1 | |
| Oggi h: 07:30 | Sereno | 20 | 17 | 82 | 1021 | 10 | E/SE 9.3 | |
| Oggi h: 07:00 | Sereno | 20 | 17 | 82 | 1021 | 10 | SE 9.3 | |
| Oggi h: 06:30 | Poco Nuvoloso | 20 | 17 | 82 | 1021 | 10 | SE 9.3 | |
| Oggi h: 06:00 | Nuvoloso | 21 | 17 | 77 | 1021 | 10 | SE 13 | |
| Oggi h: 05:30 | Coperto | 21 | 17 | 77 | 1021 | 10 | S/SE 13 | |
| Oggi h: 05:00 | Molto Nuvoloso | 21 | 17 | 77 | 1022 | 10 | SE 13 | |
| Oggi h: 04:30 | Molto Nuvoloso | 20 | 16 | 77 | 1021 | 10 | SE 11.1 | |
| Oggi h: 04:00 | Sereno | 20 | 16 | 77 | 1021 | 10 | SE 11.1 | |
| Oggi h: 03:30 | Sereno | 21 | 15 | 68 | 1021 | 10 | SE 14.8 | |
| Oggi h: 03:00 | Sereno | 21 | 15 | 68 | 1022 | 10 | SE 14.8 | |
| Oggi h: 02:30 | Sereno | 21 | 14 | 64 | 1022 | 10 | SE 7.4 | |
| Oggi h: 02:00 | Sereno | 21 | 13 | 60 | 1022 | 10 | E/SE 9.3 | |
| Oggi h: 01:30 | Sereno | 22 | 10 | 46 | 1022 | 10 | E/SE 9.3 | |
| Oggi h: 01:00 | Sereno | 23 | 8 | 38 | 1022 | 10 | SE 13 | |
| Oggi h: 00:30 | Sereno | 23 | 9 | 40 | 1022 | 10 | S/SE 13 | |
| Oggi h: 00:00 | Sereno | 23 | 11 | 46 | 1021 | 10 | S/SE 11.1 | |
| Ieri h: 23:30 | Sereno | 24 | 11 | 43 | 1021 | 10 | S/SE 11.1 | |
| Ieri h: 23:00 | Sereno | 24 | 12 | 47 | 1021 | 10 | S/SE 14.8 | |
| Ieri h: 22:30 | Sereno | 25 | 13 | 47 | 1020 | 10 | S/SE 14.8 | |
| Ieri h: 22:00 | Sereno | 26 | 12 | 41 | 1020 | 10 | S/SE 11.1 | |
| Ieri h: 21:30 | Sereno | 27 | 12 | 39 | 1019 | 10 | S 11.1 | |
| Ieri h: 21:00 | Sereno | 29 | 11 | 32 | 1019 | 10 | S 13 | |
| Ieri h: 20:30 | Sereno | 30 | 8 | 25 | 1019 | 10 | S/SE 14.8 | |
| Ieri h: 20:00 | Sereno | 32 | 7 | 21 | 1018 | 10 | S/SE 13 | |
| Ieri h: 19:30 | Sereno | 33 | 5 | 17 | 1018 | 10 | S/SE 14.8 | |
| Ieri h: 19:00 | Sereno | 34 | 4 | 15 | 1018 | 10 | S/SE 14.8 | |
| Ieri h: 18:30 | Sereno | 34 | 3 | 14 | 1019 | 10 | SE 13 | |
| Ieri h: 18:00 | Sereno | 34 | 3 | 14 | 1019 | 10 | SE 14.8 | |



